createdAt,value
2023-02-16T00:01:25.916Z,41.17
2023-02-16T00:03:55.569Z,39.97
2023-02-16T00:06:23.454Z,42.40
2023-02-16T00:08:53.293Z,42.17
2023-02-16T00:11:47.496Z,37.83
2023-02-16T00:14:15.318Z,37.73
2023-02-16T00:16:43.262Z,38.30
2023-02-16T00:19:19.695Z,38.77
2023-02-16T00:21:47.582Z,40.43
2023-02-16T00:24:15.330Z,36.00
2023-02-16T00:26:45.504Z,41.23
2023-02-16T00:29:19.706Z,38.03
2023-02-16T00:31:47.540Z,34.80
2023-02-16T00:34:31.549Z,39.27
2023-02-16T00:37:02.837Z,36.00
2023-02-16T00:39:31.044Z,39.93
2023-02-16T00:42:04.730Z,42.60
2023-02-16T00:44:36.614Z,41.07
2023-02-16T00:47:11.508Z,43.97
2023-02-16T00:49:39.165Z,41.43
2023-02-16T00:52:23.987Z,40.50
2023-02-16T00:54:51.621Z,41.97
2023-02-16T00:57:21.368Z,40.70
2023-02-16T00:59:56.008Z,41.47
2023-02-16T01:02:23.711Z,41.33
2023-02-16T01:04:51.677Z,42.67
2023-02-16T01:07:38.741Z,44.03
2023-02-16T01:10:25.222Z,45.37
2023-02-16T01:12:54.317Z,43.03
2023-02-16T01:15:25.560Z,42.37
2023-02-16T01:17:53.652Z,46.67
2023-02-16T01:20:25.452Z,44.83
2023-02-16T01:22:53.316Z,48.33
2023-02-16T01:25:21.441Z,45.80
2023-02-16T01:27:50.273Z,49.57
2023-02-16T01:30:21.625Z,46.83
2023-02-16T01:32:51.855Z,41.60
2023-02-16T01:35:19.909Z,46.37
2023-02-16T01:37:47.675Z,42.67
2023-02-16T01:40:31.460Z,44.47
2023-02-16T01:43:04.977Z,43.47
2023-02-16T01:45:36.811Z,44.10
2023-02-16T01:48:08.109Z,45.47
2023-02-16T01:50:44.777Z,50.67
2023-02-16T01:53:21.327Z,42.33
2023-02-16T01:55:53.541Z,43.60
2023-02-16T01:58:32.620Z,46.03
2023-02-16T02:01:33.762Z,44.80
2023-02-16T02:04:19.164Z,41.40
2023-02-16T02:06:47.989Z,38.20
2023-02-16T02:09:20.812Z,45.07
2023-02-16T02:11:53.616Z,41.00
2023-02-16T02:14:25.208Z,40.87
2023-02-16T02:16:57.034Z,42.47
2023-02-16T02:19:25.816Z,40.50
2023-02-16T02:22:38.150Z,43.63
2023-02-16T02:25:41.559Z,36.40
2023-02-16T02:28:20.375Z,39.67
2023-02-16T02:30:53.659Z,43.30
2023-02-16T02:33:33.944Z,43.63
2023-02-16T02:36:16.653Z,43.90
2023-02-16T02:38:59.574Z,39.63
2023-02-16T02:41:47.238Z,41.33
2023-02-16T02:44:21.263Z,41.07
2023-02-16T02:46:50.767Z,40.13
2023-02-16T02:49:19.894Z,41.20
2023-02-16T02:51:48.193Z,42.83
2023-02-16T02:54:37.709Z,41.87
2023-02-16T02:57:32.384Z,37.43
2023-02-16T03:00:24.649Z,37.97
2023-02-16T03:02:56.306Z,38.93
2023-02-16T03:05:27.364Z,36.27
2023-02-16T03:08:14.198Z,45.70
2023-02-16T03:11:04.082Z,41.07
2023-02-16T03:13:36.908Z,39.77
2023-02-16T03:16:12.277Z,42.27
2023-02-16T03:18:59.890Z,41.37
2023-02-16T03:21:47.111Z,36.37
2023-02-16T03:24:41.884Z,43.33
2023-02-16T03:27:28.233Z,37.23
2023-02-16T03:29:57.851Z,38.30
2023-02-16T03:32:28.574Z,41.50
2023-02-16T03:34:56.365Z,43.87
2023-02-16T03:37:24.343Z,42.43
2023-02-16T03:40:09.745Z,41.63
2023-02-16T03:42:37.575Z,38.87
2023-02-16T03:45:06.096Z,41.17
2023-02-16T03:47:35.218Z,43.27
2023-02-16T03:50:03.216Z,43.10
2023-02-16T03:52:31.034Z,44.33
2023-02-16T03:55:00.437Z,41.53
2023-02-16T03:57:28.260Z,41.23
2023-02-16T03:59:57.714Z,45.97
2023-02-16T04:02:27.465Z,44.33
2023-02-16T04:04:56.679Z,45.73
2023-02-16T04:07:24.426Z,41.80
2023-02-16T04:09:52.235Z,46.33
2023-02-16T04:12:37.051Z,42.43
2023-02-16T04:15:07.064Z,39.83
2023-02-16T04:17:34.901Z,44.93
2023-02-16T04:20:04.623Z,43.70
2023-02-16T04:22:32.732Z,43.47
2023-02-16T04:25:00.706Z,43.87
2023-02-16T04:27:28.493Z,43.43
2023-02-16T04:29:56.311Z,43.40
2023-02-16T04:32:24.192Z,40.73
2023-02-16T04:34:52.024Z,47.00
2023-02-16T04:37:21.215Z,44.93
2023-02-16T04:39:48.988Z,42.80
2023-02-16T04:42:17.008Z,42.47
2023-02-16T04:44:44.928Z,48.37
2023-02-16T04:47:12.696Z,43.50
2023-02-16T04:49:40.563Z,41.57
2023-02-16T04:52:08.666Z,42.93
2023-02-16T04:54:37.840Z,48.60
2023-02-16T04:57:05.915Z,42.77
2023-02-16T04:59:33.775Z,43.20
2023-02-16T05:02:01.597Z,42.33
2023-02-16T05:04:29.737Z,38.47
2023-02-16T05:06:57.691Z,42.63
2023-02-16T05:09:25.688Z,41.87
2023-02-16T05:12:17.508Z,40.10
2023-02-16T05:14:46.020Z,34.57
2023-02-16T05:17:16.171Z,39.03
2023-02-16T05:19:46.500Z,38.97
2023-02-16T05:22:15.283Z,43.43
2023-02-16T05:24:43.611Z,40.97
2023-02-16T05:27:16.872Z,41.53
2023-02-16T05:29:44.731Z,39.50
2023-02-16T05:32:12.558Z,40.77
2023-02-16T05:34:40.297Z,42.83
2023-02-16T05:37:08.253Z,44.03
2023-02-16T05:39:36.124Z,45.27
2023-02-16T05:42:04.172Z,41.67
2023-02-16T05:44:33.388Z,43.67
2023-02-16T05:47:01.158Z,43.83
2023-02-16T05:49:29.230Z,42.17
2023-02-16T05:51:57.046Z,41.93
2023-02-16T05:54:25.111Z,42.13
2023-02-16T05:56:53.631Z,45.67
2023-02-16T05:59:21.656Z,41.73
2023-02-16T06:01:52.195Z,45.47
2023-02-16T06:04:21.954Z,46.47
2023-02-16T06:06:50.418Z,44.20
2023-02-16T06:09:18.303Z,42.77
2023-02-16T06:11:46.146Z,43.00
2023-02-16T06:14:15.899Z,39.90
2023-02-16T06:16:45.378Z,38.73
2023-02-16T06:19:15.501Z,47.23
2023-02-16T06:21:43.609Z,39.70
2023-02-16T06:24:13.262Z,43.10
2023-02-16T06:26:41.282Z,41.47
2023-02-16T06:29:11.278Z,38.97
2023-02-16T06:31:39.190Z,36.73
2023-02-16T06:34:07.147Z,44.37
2023-02-16T06:36:36.370Z,38.47
2023-02-16T06:39:04.575Z,38.33
2023-02-16T06:41:34.289Z,39.57
2023-02-16T06:44:03.781Z,39.37
2023-02-16T06:46:31.804Z,39.03
2023-02-16T06:49:00.032Z,41.03
2023-02-16T06:51:28.127Z,40.23
2023-02-16T06:53:57.337Z,43.47
2023-02-16T06:56:25.727Z,42.13
2023-02-16T06:58:53.530Z,38.80
2023-02-16T07:01:23.415Z,40.27
2023-02-16T07:03:51.576Z,38.20
2023-02-16T07:06:19.715Z,40.80
2023-02-16T07:08:47.631Z,43.10
2023-02-16T07:11:18.238Z,43.43
2023-02-16T07:13:46.516Z,38.77
2023-02-16T07:16:15.403Z,43.33
2023-02-16T07:18:43.719Z,45.47
2023-02-16T07:21:11.616Z,46.83
2023-02-16T07:23:39.255Z,44.47
2023-02-16T07:26:07.028Z,43.47
2023-02-16T07:28:36.097Z,44.77
2023-02-16T07:31:08.446Z,47.40
2023-02-16T07:33:36.335Z,52.37
2023-02-16T07:36:04.499Z,45.00
2023-02-16T07:38:32.264Z,41.67
2023-02-16T07:41:00.357Z,45.87
2023-02-16T07:43:28.125Z,49.20
2023-02-16T07:45:57.432Z,50.67
2023-02-16T07:48:25.398Z,45.17
2023-02-16T07:50:53.264Z,43.63
2023-02-16T07:53:20.945Z,47.43
2023-02-16T07:55:48.643Z,50.50
2023-02-16T07:58:27.385Z,47.33
2023-02-16T08:00:57.881Z,48.17
2023-02-16T08:03:25.677Z,52.10
2023-02-16T08:05:53.514Z,50.63
2023-02-16T08:08:21.130Z,50.30
2023-02-16T08:10:49.046Z,56.80
2023-02-16T08:13:16.761Z,49.47
2023-02-16T08:15:45.136Z,54.03
2023-02-16T08:18:15.151Z,55.03
2023-02-16T08:21:01.466Z,59.30
2023-02-16T08:23:31.334Z,51.77
2023-02-16T08:25:59.582Z,63.23
2023-02-16T08:28:28.835Z,66.60
2023-02-16T08:30:56.945Z,59.70
2023-02-16T08:33:26.118Z,64.90
2023-02-16T08:35:54.041Z,60.67
2023-02-16T08:38:22.828Z,61.83
2023-02-16T08:40:50.877Z,59.77
2023-02-16T08:43:18.750Z,62.83
2023-02-16T08:45:47.504Z,60.87
2023-02-16T08:48:16.581Z,63.97
2023-02-16T08:50:53.173Z,76.10
2023-02-16T08:53:23.016Z,61.27
2023-02-16T08:55:55.658Z,70.30
2023-02-16T08:58:24.396Z,64.90
2023-02-16T09:00:52.301Z,71.07
2023-02-16T09:03:20.713Z,70.67
2023-02-16T09:05:51.124Z,69.57
2023-02-16T09:08:19.150Z,76.93
2023-02-16T09:10:46.859Z,80.77
2023-02-16T09:13:16.099Z,72.97
2023-02-16T09:15:44.008Z,82.50
2023-02-16T09:18:12.611Z,83.43
2023-02-16T09:20:41.123Z,84.67
2023-02-16T09:23:12.284Z,86.47
2023-02-16T09:25:41.783Z,99.50
2023-02-16T09:28:09.610Z,95.57
2023-02-16T09:30:39.356Z,102.53
2023-02-16T09:33:07.725Z,108.43
2023-02-16T09:35:35.440Z,104.10
2023-02-16T09:38:03.591Z,112.23
2023-02-16T09:40:32.666Z,101.47
2023-02-16T09:43:09.381Z,116.53
2023-02-16T09:45:42.893Z,115.43
2023-02-16T09:48:30.313Z,110.73
2023-02-16T09:51:01.343Z,115.23
2023-02-16T09:53:39.407Z,123.47
2023-02-16T09:56:18.850Z,119.97
2023-02-16T09:58:52.921Z,123.53
2023-02-16T10:01:31.790Z,122.27
2023-02-16T10:04:17.374Z,119.93
2023-02-16T10:06:58.296Z,123.27
2023-02-16T10:09:27.741Z,134.27
2023-02-16T10:12:03.450Z,137.73
2023-02-16T10:14:37.059Z,153.37
2023-02-16T10:17:15.159Z,159.57
2023-02-16T10:19:49.310Z,176.20
2023-02-16T10:22:20.921Z,167.87
2023-02-16T10:25:00.236Z,169.17
2023-02-16T10:27:37.925Z,159.90
2023-02-16T10:30:13.457Z,171.40
2023-02-16T10:32:53.898Z,163.27
2023-02-16T10:35:31.416Z,164.80
2023-02-16T10:38:05.955Z,168.50
2023-02-16T10:40:45.110Z,175.77
2023-02-16T10:43:19.099Z,181.67
2023-02-16T10:45:52.335Z,184.33
2023-02-16T10:48:21.761Z,188.67
2023-02-16T10:50:58.382Z,194.47
2023-02-16T10:53:39.121Z,187.77
2023-02-16T10:56:29.891Z,179.23
2023-02-16T10:59:00.285Z,199.60
2023-02-16T11:01:36.006Z,187.60
2023-02-16T11:04:04.044Z,195.82
2023-02-16T11:06:31.880Z,197.10
2023-02-16T11:09:01.894Z,225.93
2023-02-16T11:11:37.761Z,237.02
2023-02-16T11:14:09.294Z,243.80
2023-02-16T11:16:37.229Z,233.15
2023-02-16T11:19:08.842Z,241.40
2023-02-16T11:21:46.028Z,230.60
2023-02-16T11:24:25.124Z,260.27
2023-02-16T11:27:04.563Z,237.60
2023-02-16T11:29:34.240Z,259.50
2023-02-16T11:32:10.219Z,253.15
2023-02-16T11:34:42.404Z,256.45
2023-02-16T11:41:26.878Z,239.40
2023-02-16T11:43:55.146Z,252.05
2023-02-16T11:46:24.909Z,263.33
2023-02-16T11:48:53.404Z,249.07
2023-02-16T11:51:33.084Z,268.15
2023-02-16T11:54:04.015Z,262.20
2023-02-16T11:56:33.384Z,271.73
2023-02-16T11:59:13.829Z,263.65
2023-02-16T12:01:59.917Z,274.88
2023-02-16T12:04:44.030Z,253.68
2023-02-16T12:07:26.890Z,251.80
2023-02-16T12:10:03.479Z,256.88
2023-02-16T12:12:39.986Z,244.18
2023-02-16T12:15:19.264Z,257.55
2023-02-16T12:18:06.136Z,224.95
2023-02-16T12:20:42.947Z,229.10
2023-02-16T12:23:23.563Z,250.52
2023-02-16T12:26:02.327Z,234.98
2023-02-16T12:28:41.905Z,232.35
2023-02-16T12:31:21.990Z,231.48
2023-02-16T12:33:59.386Z,228.50
2023-02-16T12:36:53.111Z,206.18
2023-02-16T12:39:28.707Z,217.55
2023-02-16T12:42:09.432Z,227.57
2023-02-16T12:44:42.557Z,217.45
2023-02-16T12:47:15.397Z,218.95
2023-02-16T12:49:53.310Z,232.80
2023-02-16T12:52:30.349Z,223.02
2023-02-16T12:55:12.632Z,225.02
2023-02-16T12:57:46.091Z,211.90
2023-02-16T13:00:22.505Z,203.15
2023-02-16T13:02:56.759Z,237.98
2023-02-16T13:05:31.479Z,220.93
2023-02-16T13:08:06.687Z,208.38
2023-02-16T13:10:38.113Z,207.13
2023-02-16T13:13:10.448Z,221.50
2023-02-16T13:15:41.363Z,211.80
2023-02-16T13:18:20.507Z,225.23
2023-02-16T13:20:53.817Z,227.95
2023-02-16T13:23:44.717Z,230.02
2023-02-16T13:26:33.976Z,223.73
2023-02-16T13:29:27.185Z,206.43
2023-02-16T13:32:07.055Z,229.73
2023-02-16T13:34:53.527Z,219.23
2023-02-16T13:37:37.407Z,231.65
2023-02-16T13:40:28.855Z,226.55
2023-02-16T13:43:12.316Z,221.30
2023-02-16T13:45:43.532Z,231.23
2023-02-16T13:48:17.255Z,232.02
2023-02-16T13:50:47.113Z,241.07
2023-02-16T13:53:21.989Z,214.43
2023-02-16T13:55:50.707Z,209.52
2023-02-16T13:58:30.782Z,217.07
2023-02-16T14:00:58.955Z,211.95
2023-02-16T14:03:39.285Z,220.20
2023-02-16T14:06:32.186Z,225.32
2023-02-16T14:09:46.458Z,212.27
2023-02-16T14:12:19.701Z,194.23
2023-02-16T14:14:58.556Z,212.55
2023-02-16T14:17:29.347Z,207.10
2023-02-16T14:19:58.906Z,218.35
2023-02-16T14:22:34.288Z,211.38
2023-02-16T14:25:06.577Z,203.20
2023-02-16T14:27:47.622Z,192.73
2023-02-16T14:30:27.202Z,190.98
2023-02-16T14:33:00.317Z,192.38
2023-02-16T14:35:33.837Z,190.32
2023-02-16T14:38:03.161Z,182.50
2023-02-16T14:40:49.261Z,169.75
2023-02-16T14:43:31.558Z,172.63
2023-02-16T14:46:35.081Z,172.98
2023-02-16T14:49:25.850Z,161.30
2023-02-16T14:52:29.947Z,162.35
2023-02-16T14:55:24.041Z,157.85
2023-02-16T14:57:57.398Z,162.15
2023-02-16T15:00:35.651Z,163.35
2023-02-16T15:03:14.411Z,153.75
2023-02-16T15:05:44.156Z,165.23
2023-02-16T15:08:17.287Z,166.07
2023-02-16T15:10:47.073Z,154.27
2023-02-16T15:13:22.195Z,159.38
2023-02-16T15:15:53.424Z,169.77
2023-02-16T15:18:25.204Z,163.70
2023-02-16T15:20:55.770Z,166.43
2023-02-16T15:23:25.738Z,174.60
2023-02-16T15:25:56.842Z,164.30
2023-02-16T15:28:27.623Z,159.52
2023-02-16T15:30:58.264Z,165.35
2023-02-16T15:33:37.087Z,158.00
2023-02-16T15:36:08.896Z,152.20
2023-02-16T15:38:39.058Z,160.90
2023-02-16T15:41:08.885Z,160.45
2023-02-16T15:43:40.451Z,156.90
2023-02-16T15:46:15.858Z,162.93
2023-02-16T15:48:43.723Z,159.50
2023-02-16T15:51:16.605Z,156.02
2023-02-16T15:53:51.328Z,160.57
2023-02-16T15:56:28.893Z,157.70
2023-02-16T15:59:00.806Z,169.55
2023-02-16T16:01:33.954Z,159.90
2023-02-16T16:04:04.276Z,161.38
2023-02-16T16:06:38.049Z,165.10
2023-02-16T16:09:08.413Z,169.65
2023-02-16T16:11:38.013Z,168.88
2023-02-16T16:14:08.140Z,169.57
2023-02-16T16:16:36.755Z,169.38
2023-02-16T16:19:09.585Z,160.68
2023-02-16T16:21:48.197Z,171.27
2023-02-16T16:24:33.614Z,166.98
2023-02-16T16:27:05.397Z,174.50
2023-02-16T16:29:37.287Z,186.93
2023-02-16T16:32:07.239Z,179.00
2023-02-16T16:34:37.728Z,174.07
2023-02-16T16:37:08.346Z,182.02
2023-02-16T16:39:40.367Z,187.35
2023-02-16T16:42:23.513Z,186.27
2023-02-16T16:45:02.289Z,197.88
2023-02-16T16:47:34.397Z,203.13
2023-02-16T16:50:06.688Z,223.45
2023-02-16T16:52:43.016Z,211.68
2023-02-16T16:55:27.048Z,207.90
2023-02-16T16:57:56.700Z,214.32
2023-02-16T17:00:27.856Z,227.23
2023-02-16T17:02:55.565Z,224.23
2023-02-16T17:05:23.294Z,213.00
2023-02-16T17:07:51.782Z,213.15
2023-02-16T17:10:22.293Z,235.55
2023-02-16T17:12:53.982Z,231.02
2023-02-16T17:15:38.885Z,234.90
2023-02-16T17:18:08.191Z,218.95
2023-02-16T17:20:35.874Z,232.45
2023-02-16T17:23:05.313Z,219.30
2023-02-16T17:25:34.858Z,217.48
2023-02-16T17:28:03.589Z,237.63
2023-02-16T17:30:31.799Z,241.80
2023-02-16T17:33:00.993Z,241.75
2023-02-16T17:35:29.253Z,248.13
2023-02-16T17:37:57.030Z,251.57
2023-02-16T17:40:26.063Z,236.40
2023-02-16T17:42:53.791Z,252.15
2023-02-16T17:45:23.992Z,271.83
2023-02-16T17:47:53.140Z,251.23
2023-02-16T17:50:22.296Z,275.10
2023-02-16T17:52:50.024Z,265.80
2023-02-16T17:55:17.804Z,279.17
2023-02-16T17:57:45.572Z,252.85
2023-02-16T18:00:18.307Z,254.60
2023-02-16T18:02:45.971Z,271.63
2023-02-16T18:05:13.871Z,266.92
2023-02-16T18:07:42.896Z,273.05
2023-02-16T18:10:18.465Z,256.85
2023-02-16T18:12:46.400Z,262.80
2023-02-16T18:15:14.505Z,260.52
2023-02-16T18:17:42.655Z,251.98
2023-02-16T18:20:15.748Z,256.95
2023-02-16T18:22:44.797Z,273.67
2023-02-16T18:25:12.620Z,279.77
2023-02-16T18:27:40.312Z,261.48
2023-02-16T18:30:09.897Z,280.27
2023-02-16T18:32:37.834Z,275.90
2023-02-16T18:35:06.439Z,271.75
2023-02-16T18:37:34.105Z,295.52
2023-02-16T18:40:03.461Z,287.63
2023-02-16T18:42:31.199Z,294.65
2023-02-16T18:44:58.905Z,284.58
2023-02-16T18:47:26.584Z,286.35
2023-02-16T18:49:54.393Z,283.17
2023-02-16T18:52:22.126Z,288.83
2023-02-16T18:54:49.822Z,280.48
2023-02-16T18:57:18.813Z,285.17
2023-02-16T18:59:46.529Z,282.90
2023-02-16T19:02:14.163Z,270.75
2023-02-16T19:04:41.941Z,273.80
2023-02-16T19:07:09.838Z,268.63
2023-02-16T19:09:37.599Z,248.05
2023-02-16T19:12:05.656Z,260.65
2023-02-16T19:14:34.923Z,255.43
2023-02-16T19:17:02.615Z,256.45
2023-02-16T19:19:31.093Z,248.10
2023-02-16T19:21:58.821Z,259.88
2023-02-16T19:24:26.672Z,270.48
2023-02-16T19:26:54.560Z,245.07
2023-02-16T19:29:22.259Z,238.43
2023-02-16T19:31:51.373Z,256.50
2023-02-16T19:34:19.085Z,251.35
2023-02-16T19:36:46.807Z,235.52
2023-02-16T19:39:14.535Z,224.05
2023-02-16T19:41:43.946Z,253.13
2023-02-16T19:44:13.902Z,240.75
2023-02-16T19:46:42.545Z,246.77
2023-02-16T19:49:13.900Z,232.90
2023-02-16T19:51:41.586Z,232.98
2023-02-16T19:54:09.354Z,244.45
2023-02-16T19:56:40.404Z,241.18
2023-02-16T19:59:09.715Z,251.35
2023-02-16T20:01:37.458Z,253.27
2023-02-16T20:04:05.531Z,232.10
2023-02-16T20:06:39.085Z,230.88
2023-02-16T20:09:06.906Z,255.73
2023-02-16T20:11:35.102Z,222.70
2023-02-16T20:14:02.926Z,244.48
2023-02-16T20:16:30.944Z,239.82
2023-02-16T20:19:00.282Z,235.30
2023-02-16T20:21:29.767Z,236.57
2023-02-16T20:24:01.234Z,231.07
2023-02-16T20:26:33.880Z,224.70
2023-02-16T20:29:04.389Z,224.90
2023-02-16T20:31:35.717Z,236.88
2023-02-16T20:34:04.197Z,226.57
2023-02-16T20:36:32.523Z,220.00
2023-02-16T20:39:01.497Z,232.38
2023-02-16T20:41:29.207Z,259.23
2023-02-16T20:43:56.884Z,236.02
2023-02-16T20:46:25.929Z,236.52
2023-02-16T20:48:53.938Z,241.10
2023-02-16T20:51:21.867Z,247.60
2023-02-16T20:53:49.898Z,242.75
2023-02-16T20:56:21.589Z,232.50
2023-02-16T20:58:50.452Z,229.60
2023-02-16T21:01:22.043Z,225.65
2023-02-16T21:03:50.104Z,220.25
2023-02-16T21:06:18.295Z,234.13
2023-02-16T21:08:46.359Z,232.05
2023-02-16T21:11:14.756Z,235.90
2023-02-16T21:13:44.006Z,222.23
2023-02-16T21:16:13.787Z,233.68
2023-02-16T21:18:43.507Z,232.75
2023-02-16T21:21:15.334Z,237.90
2023-02-16T21:23:43.460Z,214.93
2023-02-16T21:26:11.488Z,227.57
2023-02-16T21:28:39.508Z,218.43
2023-02-16T21:31:10.950Z,217.65
2023-02-16T21:33:39.402Z,218.15
2023-02-16T21:36:09.323Z,189.90
2023-02-16T21:38:40.140Z,223.45
2023-02-16T21:41:24.580Z,226.07
2023-02-16T21:43:58.113Z,221.65
2023-02-16T21:46:28.099Z,223.38
2023-02-16T21:48:57.187Z,222.40
2023-02-16T21:51:27.919Z,232.02
2023-02-16T21:53:55.748Z,217.43
2023-02-16T21:56:30.366Z,217.98
2023-02-16T21:58:58.581Z,214.75
2023-02-16T22:01:29.620Z,218.80
2023-02-16T22:03:59.174Z,205.88
2023-02-16T22:06:28.604Z,222.80
2023-02-16T22:08:56.683Z,225.60
2023-02-16T22:11:24.451Z,218.02
2023-02-16T22:13:55.027Z,218.52
2023-02-16T22:16:23.310Z,214.98
2023-02-16T22:18:57.572Z,212.02
2023-02-16T22:21:25.349Z,204.88
2023-02-16T22:23:53.068Z,202.90
2023-02-16T22:26:23.532Z,219.73
2023-02-16T22:28:51.531Z,211.38
2023-02-16T22:31:19.368Z,198.10
2023-02-16T22:33:47.240Z,209.70
2023-02-16T22:36:16.743Z,222.10
2023-02-16T22:38:45.294Z,207.60
2023-02-16T22:41:13.395Z,214.00
2023-02-16T22:43:41.442Z,212.00
2023-02-16T22:46:13.877Z,220.27
2023-02-16T22:48:41.545Z,209.05
2023-02-16T22:51:12.006Z,224.50
2023-02-16T22:53:41.080Z,222.15
2023-02-16T22:56:10.629Z,207.35
2023-02-16T22:58:38.270Z,209.25
2023-02-16T23:01:12.061Z,217.20
2023-02-16T23:03:40.001Z,196.13
2023-02-16T23:06:12.832Z,211.00
2023-02-16T23:08:42.123Z,217.50
2023-02-16T23:11:09.756Z,228.98
2023-02-16T23:13:37.798Z,219.60
2023-02-16T23:16:08.500Z,232.80
2023-02-16T23:18:36.365Z,210.40
2023-02-16T23:21:08.540Z,220.65
2023-02-16T23:23:36.463Z,210.68
2023-02-16T23:26:07.433Z,221.05
2023-02-16T23:28:35.606Z,207.23
2023-02-16T23:31:03.438Z,213.90
2023-02-16T23:33:31.194Z,215.25
2023-02-16T23:35:59.119Z,215.25
2023-02-16T23:38:26.831Z,217.43
2023-02-16T23:40:58.639Z,209.40
2023-02-16T23:43:27.864Z,216.05
2023-02-16T23:45:56.311Z,215.05
2023-02-16T23:48:24.847Z,211.40
2023-02-16T23:50:53.490Z,208.88
2023-02-16T23:53:22.574Z,209.48
2023-02-16T23:55:57.946Z,202.90
2023-02-16T23:58:28.687Z,202.13
